sensor_id;sensor_type;location;lat;lon;timestamp;P1;durP1;ratioP1;P2;durP2;ratioP2
55465;SDS011;41329;41.594;23.810;2022-11-27T00:01:35;15.87;;;14.47;;
55465;SDS011;41329;41.594;23.810;2022-11-27T00:04:02;16.60;;;15.00;;
55465;SDS011;41329;41.594;23.810;2022-11-27T00:06:29;19.63;;;17.70;;
55465;SDS011;41329;41.594;23.810;2022-11-27T00:08:55;16.60;;;15.27;;
55465;SDS011;41329;41.594;23.810;2022-11-27T00:11:23;25.23;;;20.30;;
55465;SDS011;41329;41.594;23.810;2022-11-27T00:13:50;27.30;;;22.20;;
55465;SDS011;41329;41.594;23.810;2022-11-27T00:16:16;29.80;;;23.00;;
55465;SDS011;41329;41.594;23.810;2022-11-27T00:18:43;28.13;;;21.90;;
55465;SDS011;41329;41.594;23.810;2022-11-27T00:21:09;23.37;;;20.03;;
55465;SDS011;41329;41.594;23.810;2022-11-27T00:23:36;24.77;;;20.60;;
55465;SDS011;41329;41.594;23.810;2022-11-27T00:26:02;23.50;;;19.37;;
55465;SDS011;41329;41.594;23.810;2022-11-27T00:28:29;31.93;;;23.70;;
55465;SDS011;41329;41.594;23.810;2022-11-27T00:31:01;37.67;;;24.07;;
55465;SDS011;41329;41.594;23.810;2022-11-27T00:33:28;26.53;;;22.10;;
55465;SDS011;41329;41.594;23.810;2022-11-27T00:35:54;26.53;;;19.40;;
55465;SDS011;41329;41.594;23.810;2022-11-27T00:38:19;19.13;;;17.40;;
55465;SDS011;41329;41.594;23.810;2022-11-27T00:40:45;18.67;;;16.70;;
55465;SDS011;41329;41.594;23.810;2022-11-27T00:43:12;18.83;;;16.83;;
55465;SDS011;41329;41.594;23.810;2022-11-27T00:45:37;19.27;;;17.50;;
55465;SDS011;41329;41.594;23.810;2022-11-27T00:48:03;17.10;;;15.60;;
55465;SDS011;41329;41.594;23.810;2022-11-27T00:50:29;16.33;;;15.07;;
55465;SDS011;41329;41.594;23.810;2022-11-27T00:52:56;18.40;;;16.63;;
55465;SDS011;41329;41.594;23.810;2022-11-27T00:55:23;20.03;;;17.93;;
55465;SDS011;41329;41.594;23.810;2022-11-27T00:57:48;21.23;;;19.00;;
55465;SDS011;41329;41.594;23.810;2022-11-27T01:00:14;19.67;;;17.73;;
55465;SDS011;41329;41.594;23.810;2022-11-27T01:02:40;19.50;;;17.47;;
55465;SDS011;41329;41.594;23.810;2022-11-27T01:05:06;18.23;;;16.40;;
55465;SDS011;41329;41.594;23.810;2022-11-27T01:07:32;17.20;;;15.80;;
55465;SDS011;41329;41.594;23.810;2022-11-27T01:09:57;15.27;;;13.97;;
55465;SDS011;41329;41.594;23.810;2022-11-27T01:12:22;15.33;;;14.10;;
55465;SDS011;41329;41.594;23.810;2022-11-27T01:14:48;18.17;;;16.37;;
55465;SDS011;41329;41.594;23.810;2022-11-27T01:17:13;18.87;;;17.00;;
55465;SDS011;41329;41.594;23.810;2022-11-27T01:19:39;16.07;;;14.67;;
55465;SDS011;41329;41.594;23.810;2022-11-27T01:22:04;15.17;;;14.03;;
55465;SDS011;41329;41.594;23.810;2022-11-27T01:24:29;14.70;;;13.50;;
55465;SDS011;41329;41.594;23.810;2022-11-27T01:26:55;12.23;;;11.27;;
55465;SDS011;41329;41.594;23.810;2022-11-27T01:29:20;10.43;;;9.63;;
55465;SDS011;41329;41.594;23.810;2022-11-27T01:31:46;11.13;;;10.33;;
55465;SDS011;41329;41.594;23.810;2022-11-27T01:34:13;11.60;;;10.70;;
55465;SDS011;41329;41.594;23.810;2022-11-27T01:36:41;11.43;;;10.60;;
55465;SDS011;41329;41.594;23.810;2022-11-27T01:39:07;14.57;;;13.07;;
55465;SDS011;41329;41.594;23.810;2022-11-27T01:41:35;42.40;;;24.10;;
55465;SDS011;41329;41.594;23.810;2022-11-27T01:46:47;29.90;;;22.10;;
55465;SDS011;41329;41.594;23.810;2022-11-27T01:49:26;64.40;;;33.93;;
55465;SDS011;41329;41.594;23.810;2022-11-27T01:52:02;66.83;;;35.73;;
55465;SDS011;41329;41.594;23.810;2022-11-27T01:54:29;71.20;;;37.40;;
55465;SDS011;41329;41.594;23.810;2022-11-27T01:57:02;64.33;;;33.47;;
55465;SDS011;41329;41.594;23.810;2022-11-27T01:59:32;48.53;;;26.20;;
55465;SDS011;41329;41.594;23.810;2022-11-27T02:01:58;32.97;;;23.10;;
55465;SDS011;41329;41.594;23.810;2022-11-27T02:04:24;37.73;;;24.13;;
55465;SDS011;41329;41.594;23.810;2022-11-27T02:06:49;33.57;;;22.23;;
55465;SDS011;41329;41.594;23.810;2022-11-27T02:09:15;27.23;;;20.33;;
55465;SDS011;41329;41.594;23.810;2022-11-27T02:15:33;25.57;;;19.40;;
55465;SDS011;41329;41.594;23.810;2022-11-27T02:17:56;21.73;;;17.53;;
55465;SDS011;41329;41.594;23.810;2022-11-27T02:20:28;21.33;;;18.60;;
55465;SDS011;41329;41.594;23.810;2022-11-27T02:29:11;36.37;;;24.60;;
55465;SDS011;41329;41.594;23.810;2022-11-27T02:34:24;29.77;;;22.73;;
55465;SDS011;41329;41.594;23.810;2022-11-27T02:37:00;33.73;;;23.13;;
55465;SDS011;41329;41.594;23.810;2022-11-27T02:42:29;24.10;;;20.07;;
55465;SDS011;41329;41.594;23.810;2022-11-27T02:45:04;22.40;;;19.17;;
55465;SDS011;41329;41.594;23.810;2022-11-27T02:47:33;28.23;;;20.03;;
55465;SDS011;41329;41.594;23.810;2022-11-27T02:49:59;21.93;;;19.53;;
55465;SDS011;41329;41.594;23.810;2022-11-27T02:52:26;20.77;;;18.27;;
55465;SDS011;41329;41.594;23.810;2022-11-27T02:54:54;19.20;;;17.10;;
55465;SDS011;41329;41.594;23.810;2022-11-27T02:57:22;18.10;;;16.50;;
55465;SDS011;41329;41.594;23.810;2022-11-27T02:59:50;17.43;;;15.70;;
55465;SDS011;41329;41.594;23.810;2022-11-27T03:02:20;15.93;;;14.53;;
55465;SDS011;41329;41.594;23.810;2022-11-27T03:04:52;15.93;;;14.43;;
55465;SDS011;41329;41.594;23.810;2022-11-27T03:07:31;15.73;;;14.33;;
55465;SDS011;41329;41.594;23.810;2022-11-27T03:10:05;20.37;;;18.03;;
55465;SDS011;41329;41.594;23.810;2022-11-27T03:12:36;25.43;;;18.00;;
55465;SDS011;41329;41.594;23.810;2022-11-27T03:15:05;19.23;;;17.13;;
55465;SDS011;41329;41.594;23.810;2022-11-27T03:17:36;20.03;;;18.00;;
55465;SDS011;41329;41.594;23.810;2022-11-27T03:20:25;27.20;;;20.17;;
55465;SDS011;41329;41.594;23.810;2022-11-27T03:22:55;25.07;;;19.13;;
55465;SDS011;41329;41.594;23.810;2022-11-27T03:25:21;18.60;;;16.77;;
55465;SDS011;41329;41.594;23.810;2022-11-27T03:27:58;20.07;;;18.07;;
55465;SDS011;41329;41.594;23.810;2022-11-27T03:30:26;19.53;;;17.53;;
55465;SDS011;41329;41.594;23.810;2022-11-27T03:32:52;20.43;;;18.33;;
55465;SDS011;41329;41.594;23.810;2022-11-27T03:35:19;19.67;;;17.73;;
55465;SDS011;41329;41.594;23.810;2022-11-27T03:37:48;19.63;;;17.08;;
55465;SDS011;41329;41.594;23.810;2022-11-27T03:40:14;18.03;;;16.37;;
55465;SDS011;41329;41.594;23.810;2022-11-27T03:43:02;18.37;;;16.43;;
55465;SDS011;41329;41.594;23.810;2022-11-27T03:45:47;16.97;;;15.47;;
55465;SDS011;41329;41.594;23.810;2022-11-27T03:48:22;15.57;;;14.10;;
55465;SDS011;41329;41.594;23.810;2022-11-27T03:59:09;14.27;;;12.93;;
55465;SDS011;41329;41.594;23.810;2022-11-27T04:01:41;13.57;;;12.57;;
55465;SDS011;41329;41.594;23.810;2022-11-27T04:04:06;12.70;;;11.80;;
55465;SDS011;41329;41.594;23.810;2022-11-27T04:06:32;13.90;;;12.80;;
55465;SDS011;41329;41.594;23.810;2022-11-27T04:08:57;13.07;;;12.17;;
55465;SDS011;41329;41.594;23.810;2022-11-27T04:11:23;13.07;;;12.13;;
55465;SDS011;41329;41.594;23.810;2022-11-27T04:13:48;15.80;;;13.63;;
55465;SDS011;41329;41.594;23.810;2022-11-27T04:16:16;14.40;;;13.30;;
55465;SDS011;41329;41.594;23.810;2022-11-27T04:18:42;13.10;;;11.93;;
55465;SDS011;41329;41.594;23.810;2022-11-27T04:21:07;14.50;;;13.10;;
55465;SDS011;41329;41.594;23.810;2022-11-27T04:23:33;13.50;;;12.50;;
55465;SDS011;41329;41.594;23.810;2022-11-27T04:25:58;13.47;;;12.60;;
55465;SDS011;41329;41.594;23.810;2022-11-27T04:28:23;13.47;;;12.47;;
55465;SDS011;41329;41.594;23.810;2022-11-27T04:30:50;12.03;;;11.13;;
55465;SDS011;41329;41.594;23.810;2022-11-27T04:33:16;12.60;;;11.60;;
55465;SDS011;41329;41.594;23.810;2022-11-27T04:35:42;12.43;;;11.33;;
55465;SDS011;41329;41.594;23.810;2022-11-27T04:38:07;13.10;;;12.20;;
55465;SDS011;41329;41.594;23.810;2022-11-27T04:40:33;12.53;;;11.63;;
55465;SDS011;41329;41.594;23.810;2022-11-27T04:42:58;13.93;;;12.83;;
55465;SDS011;41329;41.594;23.810;2022-11-27T04:45:24;24.10;;;20.17;;
55465;SDS011;41329;41.594;23.810;2022-11-27T04:47:49;26.23;;;21.47;;
55465;SDS011;41329;41.594;23.810;2022-11-27T04:50:14;24.87;;;22.20;;
55465;SDS011;41329;41.594;23.810;2022-11-27T04:52:40;21.20;;;18.77;;
55465;SDS011;41329;41.594;23.810;2022-11-27T04:55:05;19.73;;;17.93;;
55465;SDS011;41329;41.594;23.810;2022-11-27T04:57:31;21.07;;;18.83;;
55465;SDS011;41329;41.594;23.810;2022-11-27T04:59:57;20.80;;;18.80;;
55465;SDS011;41329;41.594;23.810;2022-11-27T05:02:22;20.73;;;18.10;;
55465;SDS011;41329;41.594;23.810;2022-11-27T05:04:48;19.17;;;17.23;;
55465;SDS011;41329;41.594;23.810;2022-11-27T05:07:13;19.53;;;16.77;;
55465;SDS011;41329;41.594;23.810;2022-11-27T05:09:39;17.57;;;16.07;;
55465;SDS011;41329;41.594;23.810;2022-11-27T05:12:04;13.60;;;12.37;;
55465;SDS011;41329;41.594;23.810;2022-11-27T05:14:30;24.90;;;19.43;;
55465;SDS011;41329;41.594;23.810;2022-11-27T05:16:57;32.90;;;25.70;;
55465;SDS011;41329;41.594;23.810;2022-11-27T05:19:24;30.53;;;23.00;;
55465;SDS011;41329;41.594;23.810;2022-11-27T05:21:52;23.27;;;19.23;;
55465;SDS011;41329;41.594;23.810;2022-11-27T05:24:19;22.90;;;17.77;;
55465;SDS011;41329;41.594;23.810;2022-11-27T05:26:46;19.40;;;17.40;;
55465;SDS011;41329;41.594;23.810;2022-11-27T05:29:12;22.00;;;19.57;;
55465;SDS011;41329;41.594;23.810;2022-11-27T05:31:38;29.77;;;21.33;;
55465;SDS011;41329;41.594;23.810;2022-11-27T05:34:04;30.87;;;23.53;;
55465;SDS011;41329;41.594;23.810;2022-11-27T05:36:30;40.40;;;25.17;;
55465;SDS011;41329;41.594;23.810;2022-11-27T05:38:56;35.50;;;22.50;;
55465;SDS011;41329;41.594;23.810;2022-11-27T05:41:22;42.03;;;24.87;;
55465;SDS011;41329;41.594;23.810;2022-11-27T05:43:47;36.13;;;24.37;;
55465;SDS011;41329;41.594;23.810;2022-11-27T05:46:14;32.33;;;23.87;;
55465;SDS011;41329;41.594;23.810;2022-11-27T05:48:41;27.23;;;20.43;;
55465;SDS011;41329;41.594;23.810;2022-11-27T05:51:06;45.83;;;28.97;;
55465;SDS011;41329;41.594;23.810;2022-11-27T05:53:32;170.30;;;87.10;;
55465;SDS011;41329;41.594;23.810;2022-11-27T05:56:01;230.87;;;115.83;;
55465;SDS011;41329;41.594;23.810;2022-11-27T05:58:31;123.70;;;66.53;;
55465;SDS011;41329;41.594;23.810;2022-11-27T06:00:57;95.60;;;54.03;;
55465;SDS011;41329;41.594;23.810;2022-11-27T06:03:23;101.70;;;58.03;;
55465;SDS011;41329;41.594;23.810;2022-11-27T06:05:49;75.77;;;45.20;;
55465;SDS011;41329;41.594;23.810;2022-11-27T06:08:15;78.13;;;45.67;;
55465;SDS011;41329;41.594;23.810;2022-11-27T06:10:40;77.57;;;44.70;;
55465;SDS011;41329;41.594;23.810;2022-11-27T06:13:06;78.17;;;42.43;;
55465;SDS011;41329;41.594;23.810;2022-11-27T06:15:31;68.17;;;42.63;;
55465;SDS011;41329;41.594;23.810;2022-11-27T06:17:57;92.83;;;55.33;;
55465;SDS011;41329;41.594;23.810;2022-11-27T06:20:22;108.83;;;67.07;;
55465;SDS011;41329;41.594;23.810;2022-11-27T06:22:48;104.93;;;67.47;;
55465;SDS011;41329;41.594;23.810;2022-11-27T06:25:14;117.30;;;71.93;;
55465;SDS011;41329;41.594;23.810;2022-11-27T06:27:39;120.17;;;73.50;;
55465;SDS011;41329;41.594;23.810;2022-11-27T06:30:05;123.10;;;75.93;;
55465;SDS011;41329;41.594;23.810;2022-11-27T06:32:31;105.23;;;65.97;;
55465;SDS011;41329;41.594;23.810;2022-11-27T06:34:56;98.17;;;57.73;;
55465;SDS011;41329;41.594;23.810;2022-11-27T06:37:21;66.83;;;45.20;;
55465;SDS011;41329;41.594;23.810;2022-11-27T06:39:47;66.17;;;44.07;;
55465;SDS011;41329;41.594;23.810;2022-11-27T06:42:13;69.23;;;41.37;;
55465;SDS011;41329;41.594;23.810;2022-11-27T06:44:39;67.67;;;42.57;;
55465;SDS011;41329;41.594;23.810;2022-11-27T06:47:04;78.13;;;48.83;;
55465;SDS011;41329;41.594;23.810;2022-11-27T06:49:30;58.77;;;37.90;;
55465;SDS011;41329;41.594;23.810;2022-11-27T06:51:55;49.60;;;37.10;;
55465;SDS011;41329;41.594;23.810;2022-11-27T06:54:21;76.47;;;45.93;;
55465;SDS011;41329;41.594;23.810;2022-11-27T06:56:48;70.00;;;47.00;;
55465;SDS011;41329;41.594;23.810;2022-11-27T06:59:14;78.17;;;45.47;;
55465;SDS011;41329;41.594;23.810;2022-11-27T07:01:39;62.53;;;40.67;;
55465;SDS011;41329;41.594;23.810;2022-11-27T07:04:06;60.57;;;37.43;;
55465;SDS011;41329;41.594;23.810;2022-11-27T07:09:01;49.60;;;32.80;;
55465;SDS011;41329;41.594;23.810;2022-11-27T07:11:27;62.33;;;37.13;;
55465;SDS011;41329;41.594;23.810;2022-11-27T07:13:55;39.00;;;29.57;;
55465;SDS011;41329;41.594;23.810;2022-11-27T07:16:22;27.87;;;24.83;;
55465;SDS011;41329;41.594;23.810;2022-11-27T07:18:49;27.13;;;23.40;;
55465;SDS011;41329;41.594;23.810;2022-11-27T07:21:17;33.30;;;27.33;;
55465;SDS011;41329;41.594;23.810;2022-11-27T07:23:42;31.10;;;23.67;;
55465;SDS011;41329;41.594;23.810;2022-11-27T07:26:09;28.17;;;22.97;;
55465;SDS011;41329;41.594;23.810;2022-11-27T07:28:54;25.13;;;21.87;;
55465;SDS011;41329;41.594;23.810;2022-11-27T07:31:20;20.63;;;18.80;;
55465;SDS011;41329;41.594;23.810;2022-11-27T07:33:47;24.53;;;21.97;;
55465;SDS011;41329;41.594;23.810;2022-11-27T07:36:17;15.60;;;13.97;;
55465;SDS011;41329;41.594;23.810;2022-11-27T07:38:44;16.13;;;14.83;;
55465;SDS011;41329;41.594;23.810;2022-11-27T07:41:10;22.47;;;20.23;;
55465;SDS011;41329;41.594;23.810;2022-11-27T07:43:37;33.50;;;24.33;;
55465;SDS011;41329;41.594;23.810;2022-11-27T07:46:03;37.47;;;26.63;;
55465;SDS011;41329;41.594;23.810;2022-11-27T07:48:34;28.63;;;23.10;;
55465;SDS011;41329;41.594;23.810;2022-11-27T07:50:59;25.37;;;20.90;;
55465;SDS011;41329;41.594;23.810;2022-11-27T07:53:25;23.70;;;21.17;;
55465;SDS011;41329;41.594;23.810;2022-11-27T07:55:50;25.70;;;21.53;;
55465;SDS011;41329;41.594;23.810;2022-11-27T07:58:16;23.67;;;21.13;;
55465;SDS011;41329;41.594;23.810;2022-11-27T08:00:42;30.00;;;24.93;;
55465;SDS011;41329;41.594;23.810;2022-11-27T08:03:08;32.03;;;27.37;;
55465;SDS011;41329;41.594;23.810;2022-11-27T08:05:34;40.70;;;27.87;;
55465;SDS011;41329;41.594;23.810;2022-11-27T08:08:01;110.17;;;53.93;;
55465;SDS011;41329;41.594;23.810;2022-11-27T08:10:29;96.67;;;49.93;;
55465;SDS011;41329;41.594;23.810;2022-11-27T08:12:56;72.30;;;38.40;;
55465;SDS011;41329;41.594;23.810;2022-11-27T08:15:22;106.90;;;60.23;;
55465;SDS011;41329;41.594;23.810;2022-11-27T08:17:47;46.33;;;32.30;;
55465;SDS011;41329;41.594;23.810;2022-11-27T08:20:12;45.83;;;33.43;;
55465;SDS011;41329;41.594;23.810;2022-11-27T08:22:38;39.43;;;30.20;;
55465;SDS011;41329;41.594;23.810;2022-11-27T08:25:03;37.00;;;30.17;;
55465;SDS011;41329;41.594;23.810;2022-11-27T08:27:30;42.90;;;31.13;;
55465;SDS011;41329;41.594;23.810;2022-11-27T08:29:57;35.63;;;28.93;;
55465;SDS011;41329;41.594;23.810;2022-11-27T08:32:22;36.13;;;30.20;;
55465;SDS011;41329;41.594;23.810;2022-11-27T08:34:47;38.70;;;30.20;;
55465;SDS011;41329;41.594;23.810;2022-11-27T08:37:13;32.87;;;28.20;;
55465;SDS011;41329;41.594;23.810;2022-11-27T08:39:38;31.30;;;25.47;;
55465;SDS011;41329;41.594;23.810;2022-11-27T08:42:04;31.43;;;25.23;;
55465;SDS011;41329;41.594;23.810;2022-11-27T08:44:29;33.27;;;26.77;;
55465;SDS011;41329;41.594;23.810;2022-11-27T08:46:55;35.87;;;26.53;;
55465;SDS011;41329;41.594;23.810;2022-11-27T08:49:20;178.97;;;79.00;;
55465;SDS011;41329;41.594;23.810;2022-11-27T08:51:46;26.63;;;23.83;;
55465;SDS011;41329;41.594;23.810;2022-11-27T08:54:11;53.50;;;32.27;;
55465;SDS011;41329;41.594;23.810;2022-11-27T08:56:37;22.87;;;20.67;;
55465;SDS011;41329;41.594;23.810;2022-11-27T08:59:02;23.27;;;21.00;;
55465;SDS011;41329;41.594;23.810;2022-11-27T09:01:29;23.27;;;19.63;;
55465;SDS011;41329;41.594;23.810;2022-11-27T09:03:56;21.37;;;19.37;;
55465;SDS011;41329;41.594;23.810;2022-11-27T09:06:23;29.10;;;23.93;;
55465;SDS011;41329;41.594;23.810;2022-11-27T09:08:52;25.15;;;22.08;;
55465;SDS011;41329;41.594;23.810;2022-11-27T09:11:20;21.67;;;19.60;;
55465;SDS011;41329;41.594;23.810;2022-11-27T09:13:45;22.40;;;19.97;;
55465;SDS011;41329;41.594;23.810;2022-11-27T09:16:12;29.13;;;24.40;;
55465;SDS011;41329;41.594;23.810;2022-11-27T09:18:42;37.47;;;26.53;;
55465;SDS011;41329;41.594;23.810;2022-11-27T09:21:09;41.93;;;27.40;;
55465;SDS011;41329;41.594;23.810;2022-11-27T09:23:36;15.43;;;14.13;;
55465;SDS011;41329;41.594;23.810;2022-11-27T09:26:05;14.67;;;13.57;;
55465;SDS011;41329;41.594;23.810;2022-11-27T09:28:33;12.43;;;11.57;;
55465;SDS011;41329;41.594;23.810;2022-11-27T09:30:59;9.83;;;9.13;;
55465;SDS011;41329;41.594;23.810;2022-11-27T09:33:26;11.20;;;10.40;;
55465;SDS011;41329;41.594;23.810;2022-11-27T09:35:53;16.63;;;15.23;;
55465;SDS011;41329;41.594;23.810;2022-11-27T09:38:18;12.07;;;11.37;;
55465;SDS011;41329;41.594;23.810;2022-11-27T09:40:49;15.00;;;13.67;;
55465;SDS011;41329;41.594;23.810;2022-11-27T09:43:16;13.27;;;12.27;;
55465;SDS011;41329;41.594;23.810;2022-11-27T09:45:48;16.83;;;15.63;;
55465;SDS011;41329;41.594;23.810;2022-11-27T09:48:24;18.93;;;17.27;;
55465;SDS011;41329;41.594;23.810;2022-11-27T09:50:56;15.27;;;13.93;;
55465;SDS011;41329;41.594;23.810;2022-11-27T09:53:34;12.20;;;11.10;;
55465;SDS011;41329;41.594;23.810;2022-11-27T09:56:09;13.83;;;12.83;;
55465;SDS011;41329;41.594;23.810;2022-11-27T09:58:39;10.52;;;9.88;;
55465;SDS011;41329;41.594;23.810;2022-11-27T10:01:09;13.15;;;11.43;;
55465;SDS011;41329;41.594;23.810;2022-11-27T10:03:36;9.70;;;9.10;;
55465;SDS011;41329;41.594;23.810;2022-11-27T10:14:51;9.00;;;8.40;;
55465;SDS011;41329;41.594;23.810;2022-11-27T10:17:42;9.07;;;8.47;;
55465;SDS011;41329;41.594;23.810;2022-11-27T10:20:30;8.23;;;7.73;;
55465;SDS011;41329;41.594;23.810;2022-11-27T10:26:10;7.30;;;6.80;;
55465;SDS011;41329;41.594;23.810;2022-11-27T10:28:40;8.17;;;7.47;;
55465;SDS011;41329;41.594;23.810;2022-11-27T10:31:34;6.53;;;6.13;;
55465;SDS011;41329;41.594;23.810;2022-11-27T10:34:12;8.43;;;6.73;;
55465;SDS011;41329;41.594;23.810;2022-11-27T10:37:01;6.37;;;5.87;;
55465;SDS011;41329;41.594;23.810;2022-11-27T10:39:36;7.20;;;6.70;;
55465;SDS011;41329;41.594;23.810;2022-11-27T10:42:17;5.90;;;5.40;;
55465;SDS011;41329;41.594;23.810;2022-11-27T10:45:02;7.07;;;6.47;;
55465;SDS011;41329;41.594;23.810;2022-11-27T10:47:29;6.00;;;5.30;;
55465;SDS011;41329;41.594;23.810;2022-11-27T10:49:56;6.93;;;6.53;;
55465;SDS011;41329;41.594;23.810;2022-11-27T10:52:21;6.13;;;5.73;;
55465;SDS011;41329;41.594;23.810;2022-11-27T10:54:55;8.07;;;7.37;;
55465;SDS011;41329;41.594;23.810;2022-11-27T10:57:28;5.90;;;5.50;;
55465;SDS011;41329;41.594;23.810;2022-11-27T11:02:46;8.30;;;6.47;;
55465;SDS011;41329;41.594;23.810;2022-11-27T11:05:22;6.30;;;5.77;;
55465;SDS011;41329;41.594;23.810;2022-11-27T11:10:30;5.67;;;5.27;;
55465;SDS011;41329;41.594;23.810;2022-11-27T11:13:04;4.27;;;3.87;;
55465;SDS011;41329;41.594;23.810;2022-11-27T11:15:46;10.83;;;6.93;;
55465;SDS011;41329;41.594;23.810;2022-11-27T11:18:26;8.33;;;7.67;;
55465;SDS011;41329;41.594;23.810;2022-11-27T11:20:53;7.80;;;7.20;;
55465;SDS011;41329;41.594;23.810;2022-11-27T11:23:42;6.00;;;5.60;;
55465;SDS011;41329;41.594;23.810;2022-11-27T11:26:10;5.10;;;4.80;;
55465;SDS011;41329;41.594;23.810;2022-11-27T11:28:59;5.93;;;5.43;;
55465;SDS011;41329;41.594;23.810;2022-11-27T11:31:28;6.80;;;6.30;;
55465;SDS011;41329;41.594;23.810;2022-11-27T11:34:01;7.73;;;7.13;;
55465;SDS011;41329;41.594;23.810;2022-11-27T11:36:31;7.43;;;6.93;;
55465;SDS011;41329;41.594;23.810;2022-11-27T11:38:57;5.53;;;5.13;;
55465;SDS011;41329;41.594;23.810;2022-11-27T11:41:23;5.20;;;4.80;;
55465;SDS011;41329;41.594;23.810;2022-11-27T11:43:53;5.57;;;5.17;;
55465;SDS011;41329;41.594;23.810;2022-11-27T11:46:21;6.60;;;6.10;;
55465;SDS011;41329;41.594;23.810;2022-11-27T11:48:52;6.95;;;6.35;;
55465;SDS011;41329;41.594;23.810;2022-11-27T11:51:58;7.27;;;5.70;;
55465;SDS011;41329;41.594;23.810;2022-11-27T11:57:04;7.72;;;7.10;;
55465;SDS011;41329;41.594;23.810;2022-11-27T11:59:55;8.67;;;8.07;;
55465;SDS011;41329;41.594;23.810;2022-11-27T12:15:59;5.43;;;5.03;;
55465;SDS011;41329;41.594;23.810;2022-11-27T12:18:41;7.37;;;6.80;;
55465;SDS011;41329;41.594;23.810;2022-11-27T12:24:30;8.00;;;7.50;;
55465;SDS011;41329;41.594;23.810;2022-11-27T12:27:19;7.50;;;7.00;;
55465;SDS011;41329;41.594;23.810;2022-11-27T12:37:45;7.20;;;6.60;;
55465;SDS011;41329;41.594;23.810;2022-11-27T12:40:34;5.73;;;5.43;;
55465;SDS011;41329;41.594;23.810;2022-11-27T12:48:24;4.93;;;4.63;;
55465;SDS011;41329;41.594;23.810;2022-11-27T12:51:07;4.53;;;4.23;;
55465;SDS011;41329;41.594;23.810;2022-11-27T12:53:44;3.97;;;3.67;;
55465;SDS011;41329;41.594;23.810;2022-11-27T12:59:10;5.00;;;4.60;;
55465;SDS011;41329;41.594;23.810;2022-11-27T13:01:40;4.30;;;4.00;;
55465;SDS011;41329;41.594;23.810;2022-11-27T13:04:18;4.97;;;4.43;;
55465;SDS011;41329;41.594;23.810;2022-11-27T13:06:51;4.30;;;4.10;;
55465;SDS011;41329;41.594;23.810;2022-11-27T13:09:35;4.83;;;4.47;;
55465;SDS011;41329;41.594;23.810;2022-11-27T13:12:08;6.10;;;5.73;;
55465;SDS011;41329;41.594;23.810;2022-11-27T13:14:37;7.45;;;6.95;;
55465;SDS011;41329;41.594;23.810;2022-11-27T13:17:07;4.47;;;4.17;;
55465;SDS011;41329;41.594;23.810;2022-11-27T13:19:44;5.60;;;5.20;;
55465;SDS011;41329;41.594;23.810;2022-11-27T13:22:13;5.77;;;5.23;;
55465;SDS011;41329;41.594;23.810;2022-11-27T13:24:45;5.40;;;5.00;;
55465;SDS011;41329;41.594;23.810;2022-11-27T13:30:01;7.77;;;7.00;;
55465;SDS011;41329;41.594;23.810;2022-11-27T13:32:30;15.80;;;14.63;;
55465;SDS011;41329;41.594;23.810;2022-11-27T13:35:18;8.90;;;8.30;;
55465;SDS011;41329;41.594;23.810;2022-11-27T13:40:42;14.23;;;12.87;;
55465;SDS011;41329;41.594;23.810;2022-11-27T13:43:15;12.63;;;11.60;;
55465;SDS011;41329;41.594;23.810;2022-11-27T13:45:46;8.20;;;7.70;;
55465;SDS011;41329;41.594;23.810;2022-11-27T13:51:11;9.30;;;8.60;;
55465;SDS011;41329;41.594;23.810;2022-11-27T13:53:48;12.63;;;11.63;;
55465;SDS011;41329;41.594;23.810;2022-11-27T13:56:13;14.90;;;11.77;;
55465;SDS011;41329;41.594;23.810;2022-11-27T13:58:39;13.83;;;12.63;;
55465;SDS011;41329;41.594;23.810;2022-11-27T14:03:42;18.97;;;17.00;;
55465;SDS011;41329;41.594;23.810;2022-11-27T14:06:18;20.87;;;18.60;;
55465;SDS011;41329;41.594;23.810;2022-11-27T14:08:56;17.13;;;15.60;;
55465;SDS011;41329;41.594;23.810;2022-11-27T14:11:30;12.87;;;11.63;;
55465;SDS011;41329;41.594;23.810;2022-11-27T14:14:24;16.85;;;12.82;;
55465;SDS011;41329;41.594;23.810;2022-11-27T14:16:53;21.70;;;14.30;;
55465;SDS011;41329;41.594;23.810;2022-11-27T14:19:23;20.65;;;15.63;;
55465;SDS011;41329;41.594;23.810;2022-11-27T14:21:54;25.90;;;16.90;;
55465;SDS011;41329;41.594;23.810;2022-11-27T14:24:24;23.13;;;17.17;;
55465;SDS011;41329;41.594;23.810;2022-11-27T14:29:46;16.13;;;14.60;;
55465;SDS011;41329;41.594;23.810;2022-11-27T14:32:13;17.27;;;15.13;;
55465;SDS011;41329;41.594;23.810;2022-11-27T14:34:39;14.60;;;13.47;;
55465;SDS011;41329;41.594;23.810;2022-11-27T14:37:05;13.17;;;12.10;;
55465;SDS011;41329;41.594;23.810;2022-11-27T14:39:35;13.50;;;12.37;;
55465;SDS011;41329;41.594;23.810;2022-11-27T14:42:02;10.43;;;9.63;;
55465;SDS011;41329;41.594;23.810;2022-11-27T14:44:42;10.00;;;9.30;;
55465;SDS011;41329;41.594;23.810;2022-11-27T14:47:14;9.30;;;8.70;;
55465;SDS011;41329;41.594;23.810;2022-11-27T14:49:43;13.27;;;12.37;;
55465;SDS011;41329;41.594;23.810;2022-11-27T14:52:10;19.03;;;17.03;;
55465;SDS011;41329;41.594;23.810;2022-11-27T14:54:39;20.90;;;16.30;;
55465;SDS011;41329;41.594;23.810;2022-11-27T14:57:05;15.60;;;14.17;;
55465;SDS011;41329;41.594;23.810;2022-11-27T14:59:39;24.47;;;16.83;;
55465;SDS011;41329;41.594;23.810;2022-11-27T15:04:39;15.30;;;13.80;;
55465;SDS011;41329;41.594;23.810;2022-11-27T15:09:49;11.57;;;10.63;;
55465;SDS011;41329;41.594;23.810;2022-11-27T15:14:57;14.57;;;8.40;;
55465;SDS011;41329;41.594;23.810;2022-11-27T15:17:31;7.70;;;7.10;;
55465;SDS011;41329;41.594;23.810;2022-11-27T15:19:58;5.53;;;5.13;;
55465;SDS011;41329;41.594;23.810;2022-11-27T15:22:26;5.50;;;5.10;;
55465;SDS011;41329;41.594;23.810;2022-11-27T15:27:24;4.60;;;4.30;;
55465;SDS011;41329;41.594;23.810;2022-11-27T15:32:43;4.70;;;4.40;;
55465;SDS011;41329;41.594;23.810;2022-11-27T15:35:33;5.00;;;4.63;;
55465;SDS011;41329;41.594;23.810;2022-11-27T15:38:07;5.43;;;5.03;;
55465;SDS011;41329;41.594;23.810;2022-11-27T15:40:35;5.20;;;4.80;;
55465;SDS011;41329;41.594;23.810;2022-11-27T15:43:12;5.57;;;5.17;;
55465;SDS011;41329;41.594;23.810;2022-11-27T15:45:39;5.07;;;4.77;;
55465;SDS011;41329;41.594;23.810;2022-11-27T15:48:11;6.10;;;5.70;;
55465;SDS011;41329;41.594;23.810;2022-11-27T15:50:39;9.87;;;9.20;;
55465;SDS011;41329;41.594;23.810;2022-11-27T15:53:05;20.30;;;15.47;;
55465;SDS011;41329;41.594;23.810;2022-11-27T15:55:31;14.17;;;13.17;;
55465;SDS011;41329;41.594;23.810;2022-11-27T15:57:57;15.87;;;10.33;;
55465;SDS011;41329;41.594;23.810;2022-11-27T16:00:23;10.17;;;9.27;;
55465;SDS011;41329;41.594;23.810;2022-11-27T16:02:50;9.40;;;8.60;;
55465;SDS011;41329;41.594;23.810;2022-11-27T16:05:16;7.80;;;7.20;;
55465;SDS011;41329;41.594;23.810;2022-11-27T16:07:42;7.93;;;7.10;;
55465;SDS011;41329;41.594;23.810;2022-11-27T16:10:08;7.80;;;7.20;;
55465;SDS011;41329;41.594;23.810;2022-11-27T16:12:33;9.27;;;8.67;;
55465;SDS011;41329;41.594;23.810;2022-11-27T16:14:59;14.27;;;13.27;;